Time;durP1;ratioP1;P1;durP2;ratioP2;P2;SDS_P1;SDS_P2;PMS_P1;PMS_P2;Temp;Humidity;BMP_temperature;BMP_pressure;BME280_temperature;BME280_humidity;BME280_pressure;Samples;Min_cycle;Max_cycle;Signal;HPM_P1;HPM_P2
2022/10/28 00:00:01;;;;;;;406.65;297.58;;;;;;;13.95;66.86;100888.00;349557;28;1026;-76
2022/10/28 00:00:12;;;;;;;407.37;295.73;;;;;;;13.93;66.70;100890.69;348919;28;1251;-76
2022/10/28 00:00:22;;;;;;;406.67;295.08;;;;;;;13.93;67.04;100889.84;344401;28;1319;-76
2022/10/28 00:00:33;;;;;;;403.73;286.93;;;;;;;13.94;66.55;100886.28;344110;28;1949;-76
2022/10/28 00:00:43;;;;;;;404.73;288.10;;;;;;;13.95;66.68;100888.00;346120;28;1169;-76
2022/10/28 00:00:55;;;;;;;405.07;288.60;;;;;;;13.97;66.71;100891.47;340886;28;1090;-77
2022/10/28 00:01:10;;;;;;;406.73;290.77;;;;;;;13.96;66.62;100890.59;340916;29;924;-77
2022/10/28 00:01:22;;;;;;;408.65;294.65;;;;;;;13.95;66.63;100890.66;342102;28;1354;-77
2022/10/28 00:01:32;;;;;;;411.58;297.98;;;;;;;13.93;66.67;100890.69;342569;28;1324;-76
2022/10/28 00:01:43;;;;;;;408.90;297.00;;;;;;;13.94;66.69;100887.16;342404;28;1397;-76
2022/10/28 00:01:53;;;;;;;406.67;295.30;;;;;;;13.94;66.57;100891.56;342261;28;872;-76
2022/10/28 00:02:04;;;;;;;405.08;293.00;;;;;;;13.94;66.91;100891.56;342828;28;1459;-76
2022/10/28 00:02:14;;;;;;;407.20;294.17;;;;;;;13.94;66.75;100894.19;344700;28;1512;-76
2022/10/28 00:02:24;;;;;;;408.43;293.30;;;;;;;13.93;66.67;100888.06;343599;28;916;-77
2022/10/28 00:02:35;;;;;;;408.42;293.80;;;;;;;13.96;66.60;100892.38;339554;28;1621;-77
2022/10/28 00:02:45;;;;;;;409.30;297.43;;;;;;;13.95;66.85;100888.88;342090;28;1936;-77
2022/10/28 00:02:58;;;;;;;408.90;298.77;;;;;;;13.95;66.70;100888.88;344765;28;1203;-77
2022/10/28 00:03:09;;;;;;;408.80;299.63;;;;;;;13.95;66.64;100883.63;342195;28;1394;-77
2022/10/28 00:03:19;;;;;;;406.47;293.10;;;;;;;13.97;66.38;100887.06;339862;29;925;-77
2022/10/28 00:03:30;;;;;;;406.67;294.15;;;;;;;13.98;66.54;100893.19;337364;29;959;-77
2022/10/28 00:03:42;;;;;;;407.58;301.40;;;;;;;13.96;66.55;100884.47;338226;29;1303;-77
2022/10/28 00:03:57;;;;;;;409.77;306.27;;;;;;;13.97;66.46;100891.47;339629;29;937;-77
2022/10/28 00:04:08;;;;;;;409.35;302.08;;;;;;;13.95;66.78;100888.00;336962;29;1428;-77
2022/10/28 00:04:18;;;;;;;409.08;296.48;;;;;;;13.94;66.89;100886.28;333975;29;1813;-76
2022/10/28 00:04:28;;;;;;;407.87;292.67;;;;;;;13.93;66.44;100887.22;331518;29;2220;-76
2022/10/28 00:04:39;;;;;;;410.08;297.60;;;;;;;13.94;66.64;100891.56;328155;30;1300;-76
2022/10/28 00:04:49;;;;;;;409.80;301.33;;;;;;;13.97;66.87;100888.81;328924;29;2294;-76
2022/10/28 00:05:00;;;;;;;411.20;307.17;;;;;;;13.95;66.42;100888.00;330477;29;1629;-76
2022/10/28 00:05:10;;;;;;;408.35;304.60;;;;;;;13.95;66.65;100894.13;334513;29;954;-76
2022/10/28 00:05:20;;;;;;;406.90;299.23;;;;;;;13.93;66.31;100882.81;331467;29;1116;-76
2022/10/28 00:05:33;;;;;;;407.38;300.95;;;;;;;13.94;66.59;100888.94;332305;29;1211;-76
2022/10/28 00:05:43;;;;;;;408.60;296.05;;;;;;;13.95;66.54;100888.00;330183;29;1957;-77
2022/10/28 00:06:00;;;;;;;410.35;295.90;;;;;;;13.94;66.41;100895.06;329433;30;911;-77
2022/10/28 00:06:35;;;;;;;408.58;293.60;;;;;;;13.97;66.47;100896.72;321260;30;2838;-77
2022/10/28 00:06:46;;;;;;;411.02;305.17;;;;;;;13.98;66.41;100893.19;319856;30;2717;-76
2022/10/28 00:06:56;;;;;;;410.58;302.23;;;;;;;13.98;66.50;100894.03;317668;30;2786;-76
2022/10/28 00:07:07;;;;;;;406.90;299.43;;;;;;;13.97;66.56;100894.94;316285;31;1302;-76
2022/10/28 00:07:17;;;;;;;408.13;301.30;;;;;;;13.95;66.55;100888.88;314998;31;1830;-76
2022/10/28 00:07:28;;;;;;;409.53;298.10;;;;;;;13.97;66.33;100891.47;313505;31;1424;-76
2022/10/28 00:07:38;;;;;;;413.52;300.50;;;;;;;13.95;66.54;100890.66;309598;31;1420;-77
2022/10/28 00:07:52;;;;;;;412.93;300.30;;;;;;;13.95;66.49;100888.00;309499;31;2184;-77
2022/10/28 00:08:02;;;;;;;406.17;295.60;;;;;;;13.91;66.65;100887.25;308439;31;2713;-76
2022/10/28 00:08:13;;;;;;;404.10;290.80;;;;;;;13.90;66.71;100895.22;307984;31;2962;-76
2022/10/28 00:08:23;;;;;;;404.70;290.73;;;;;;;13.88;66.64;100891.75;307567;32;1458;-76
2022/10/28 00:08:33;;;;;;;406.93;290.10;;;;;;;13.87;66.87;100895.31;309942;31;3184;-77
2022/10/28 00:08:44;;;;;;;408.80;295.33;;;;;;;13.88;66.68;100889.13;311246;31;3261;-76
2022/10/28 00:08:54;;;;;;;411.03;296.97;;;;;;;13.86;66.39;100888.34;312978;31;1396;-77
2022/10/28 00:09:05;;;;;;;411.48;296.75;;;;;;;13.87;67.01;100890.03;313500;31;3594;-77
2022/10/28 00:09:15;;;;;;;414.90;301.27;;;;;;;13.87;66.72;100884.78;310856;31;3405;-77
2022/10/28 00:09:26;;;;;;;411.80;303.25;;;;;;;13.85;66.87;100884.88;307594;32;980;-77
2022/10/28 00:09:36;;;;;;;414.77;307.63;;;;;;;13.84;66.78;100890.19;309721;31;2301;-76
2022/10/28 00:09:47;;;;;;;413.55;304.40;;;;;;;13.83;66.92;100893.72;307494;31;2510;-76
2022/10/28 00:10:00;;;;;;;412.63;295.33;;;;;;;13.84;66.89;100890.19;305210;32;2946;-76
2022/10/28 00:10:10;;;;;;;409.65;291.75;;;;;;;13.82;66.54;100890.22;307431;32;1291;-76
2022/10/28 00:10:21;;;;;;;410.00;293.70;;;;;;;13.82;66.63;100886.75;305838;32;3767;-76
2022/10/28 00:10:34;;;;;;;411.58;300.48;;;;;;;13.80;66.86;100884.16;306292;31;4002;-76
2022/10/28 00:10:45;;;;;;;412.90;301.55;;;;;;;13.75;67.03;100886.09;304557;32;4501;-76
2022/10/28 00:11:06;;;;;;;416.38;307.33;;;;;;;13.76;66.82;100889.56;302207;32;1328;-76
2022/10/28 00:11:24;;;;;;;412.05;306.05;;;;;;;13.76;66.92;100892.19;297655;32;4479;-77
2022/10/28 00:11:34;;;;;;;412.00;307.15;;;;;;;13.75;66.73;100893.13;295981;33;3946;-76
2022/10/28 00:11:45;;;;;;;412.10;311.60;;;;;;;13.75;66.63;100896.59;294591;33;2474;-77
2022/10/28 00:11:55;;;;;;;412.05;312.90;;;;;;;13.75;66.96;100895.75;295169;33;969;-76
2022/10/28 00:12:05;;;;;;;414.17;312.30;;;;;;;13.75;66.87;100890.47;294614;33;3284;-77
2022/10/28 00:12:16;;;;;;;413.30;306.42;;;;;;;13.75;66.86;100888.72;294398;33;4361;-76
2022/10/28 00:12:26;;;;;;;412.97;301.80;;;;;;;13.76;66.86;100894.84;291963;33;3156;-76
2022/10/28 00:12:37;;;;;;;412.23;304.70;;;;;;;13.75;66.67;100886.09;291119;34;1258;-76
2022/10/28 00:12:47;;;;;;;410.90;302.13;;;;;;;13.76;66.87;100897.47;291882;33;6162;-76
2022/10/28 00:12:57;;;;;;;411.00;300.35;;;;;;;13.75;67.01;100895.75;291018;33;6661;-76
2022/10/28 00:13:08;;;;;;;408.50;294.07;;;;;;;13.72;66.98;100891.44;290326;34;1034;-76
2022/10/28 00:13:18;;;;;;;410.43;300.63;;;;;;;13.74;66.73;100891.41;290004;33;6443;-76
2022/10/28 00:13:29;;;;;;;408.75;302.17;;;;;;;13.71;66.86;100894.13;289244;33;5709;-76
2022/10/28 00:13:39;;;;;;;409.50;304.73;;;;;;;13.68;67.06;100884.56;285487;34;1248;-76
2022/10/28 00:13:52;;;;;;;409.57;298.20;;;;;;;13.70;66.77;100898.53;284362;34;5297;-76
2022/10/28 00:14:03;;;;;;;410.02;295.10;;;;;;;13.71;66.94;100894.13;289854;33;3595;-76
2022/10/28 00:14:14;;;;;;;409.33;300.17;;;;;;;13.70;67.20;100898.53;292408;33;4883;-76
2022/10/28 00:14:24;;;;;;;412.42;303.60;;;;;;;13.68;66.91;100889.81;289098;34;1579;-76
2022/10/28 00:14:35;;;;;;;412.30;307.70;;;;;;;13.69;67.32;100885.41;290907;33;6424;-76
2022/10/28 00:14:45;;;;;;;413.33;306.33;;;;;;;13.70;67.12;100893.25;289454;33;7759;-76
2022/10/28 00:14:56;;;;;;;409.70;304.47;;;;;;;13.72;67.07;100893.22;288240;34;1360;-76
2022/10/28 00:15:06;;;;;;;410.00;301.45;;;;;;;13.74;67.25;100891.41;285148;34;8132;-76
2022/10/28 00:15:17;;;;;;;408.95;300.30;;;;;;;13.73;66.83;100892.31;286646;34;8794;-76
2022/10/28 00:15:27;;;;;;;410.33;302.83;;;;;;;13.73;66.93;100897.56;283098;34;9379;-76
2022/10/28 00:15:38;;;;;;;410.88;307.92;;;;;;;13.71;66.94;100894.13;281637;35;3401;-76
2022/10/28 00:15:48;;;;;;;413.77;310.67;;;;;;;13.62;67.48;100896.16;279950;34;7916;-76
2022/10/28 00:16:09;;;;;;;413.07;310.57;;;;;;;13.59;67.38;100890.13;279135;34;7457;-76
2022/10/28 00:16:21;;;;;;;406.70;291.70;;;;;;;13.56;67.67;100890.22;276272;35;4937;-75
2022/10/28 00:18:04;;;;;;;396.15;280.83;;;;;;;13.54;68.06;100897.31;2498502;27;20266;-76
2022/10/28 00:18:14;;;;;;;408.57;300.07;;;;;;;13.53;67.77;100891.19;354630;27;1001;-76
2022/10/28 00:18:25;;;;;;;408.20;300.95;;;;;;;13.57;67.84;100889.31;351865;28;933;-76
2022/10/28 00:18:35;;;;;;;407.33;300.00;;;;;;;13.59;67.95;100890.13;350380;28;1540;-76
2022/10/28 00:18:46;;;;;;;410.30;301.65;;;;;;;13.60;68.16;100897.97;349047;28;824;-77
2022/10/28 00:19:00;;;;;;;411.90;304.10;;;;;;;13.61;67.76;100891.78;350395;28;880;-77
2022/10/28 00:19:11;;;;;;;412.30;308.27;;;;;;;13.60;67.88;100895.34;350419;28;919;-77
2022/10/28 00:19:21;;;;;;;411.70;310.40;;;;;;;13.60;67.93;100897.97;350262;28;1782;-76
2022/10/28 00:19:32;;;;;;;411.85;309.02;;;;;;;13.60;68.05;100892.69;350343;28;916;-75
2022/10/28 00:19:42;;;;;;;412.50;309.93;;;;;;;13.59;68.09;100890.97;349581;28;837;-76
2022/10/28 00:19:52;;;;;;;414.90;305.48;;;;;;;13.61;68.33;100896.19;350352;28;1302;-76
2022/10/28 00:20:03;;;;;;;413.47;303.30;;;;;;;13.61;68.25;100893.56;348912;28;888;-76
2022/10/28 00:20:14;;;;;;;410.05;298.67;;;;;;;13.63;68.17;100900.50;350179;28;1700;-76
2022/10/28 00:20:25;;;;;;;409.50;303.30;;;;;;;13.62;68.16;100896.16;348842;28;1586;-76
2022/10/28 00:20:35;;;;;;;409.98;305.88;;;;;;;13.58;67.86;100894.53;349025;28;821;-76
2022/10/28 00:20:45;;;;;;;408.73;305.87;;;;;;;13.58;68.45;100894.53;350461;28;1028;-76
2022/10/28 00:21:16;;;;;;;410.80;304.77;;;;;;;13.55;68.71;100899.88;350418;28;1840;-75
2022/10/28 00:21:28;;;;;;;408.50;300.58;;;;;;;13.53;69.30;100891.19;351672;28;848;-75
2022/10/28 00:21:39;;;;;;;408.35;306.10;;;;;;;13.55;69.20;100899.88;348996;28;1006;-76
2022/10/28 00:21:50;;;;;;;408.88;310.10;;;;;;;13.55;69.52;100894.63;349086;28;1156;-76
2022/10/28 00:22:00;;;;;;;408.83;306.27;;;;;;;13.53;70.06;100901.69;351010;28;1319;-76
2022/10/28 00:22:11;;;;;;;410.13;307.30;;;;;;;13.52;69.94;100894.72;348907;28;967;-76
2022/10/28 00:22:21;;;;;;;410.10;304.93;;;;;;;13.52;69.73;100905.25;351700;28;1310;-76
2022/10/28 00:22:31;;;;;;;409.85;304.33;;;;;;;13.52;69.82;100899.97;350296;28;1274;-76
2022/10/28 00:22:42;;;;;;;409.83;305.77;;;;;;;13.51;69.62;100895.63;347205;28;1380;-76
2022/10/28 00:22:52;;;;;;;409.83;303.30;;;;;;;13.53;69.83;100901.69;348997;28;1192;-76
2022/10/28 00:23:03;;;;;;;410.90;308.07;;;;;;;13.53;70.29;100896.44;349034;28;942;-76
2022/10/28 00:23:13;;;;;;;411.67;304.67;;;;;;;13.54;69.75;100900.78;347495;28;1286;-76
2022/10/28 00:23:23;;;;;;;414.10;308.23;;;;;;;13.57;69.98;100903.31;347823;28;947;-76
2022/10/28 00:23:34;;;;;;;415.60;309.87;;;;;;;13.58;69.96;100898.91;350482;28;891;-76
2022/10/28 00:23:44;;;;;;;414.85;309.95;;;;;;;13.58;69.88;100898.91;350243;28;1104;-76
2022/10/28 00:23:55;;;;;;;412.70;305.77;;;;;;;13.57;70.19;100891.94;347365;28;1211;-76
2022/10/28 00:24:06;;;;;;;412.13;302.17;;;;;;;13.56;69.95;100898.09;349020;28;863;-76
2022/10/28 00:24:16;;;;;;;411.90;303.35;;;;;;;13.57;69.94;100902.47;344879;28;1284;-76
2022/10/28 00:24:27;;;;;;;410.37;302.50;;;;;;;13.56;70.15;100901.59;342600;28;1594;-77
2022/10/28 00:24:37;;;;;;;408.10;296.80;;;;;;;13.54;70.19;100898.16;338980;28;3447;-77
2022/10/28 00:24:47;;;;;;;408.60;293.13;;;;;;;13.54;70.05;100895.53;344027;28;3156;-77
2022/10/28 00:24:58;;;;;;;412.35;299.55;;;;;;;13.55;70.38;100901.66;342150;28;834;-77
2022/10/28 00:25:09;;;;;;;412.90;305.63;;;;;;;13.57;70.19;100897.19;337557;29;2833;-77
2022/10/28 00:25:23;;;;;;;413.45;309.05;;;;;;;13.57;70.14;100891.94;339442;29;1257;-77
2022/10/28 00:25:34;;;;;;;410.66;305.32;;;;;;;13.58;70.19;100899.78;343563;28;1713;-77
2022/10/28 00:25:44;;;;;;;409.47;304.03;;;;;;;13.58;70.18;100894.53;343027;28;951;-77
2022/10/28 00:25:54;;;;;;;410.87;311.27;;;;;;;13.58;70.06;100897.16;340828;28;1280;-77
2022/10/28 00:26:26;;;;;;;412.10;313.77;;;;;;;13.64;70.10;100899.59;340787;29;1442;-77
2022/10/28 00:26:37;;;;;;;408.65;305.70;;;;;;;13.64;69.72;100896.97;338055;29;1312;-77
2022/10/28 00:26:48;;;;;;;407.77;303.52;;;;;;;13.63;70.16;100897.88;340526;29;1561;-77
2022/10/28 00:26:58;;;;;;;406.38;300.40;;;;;;;13.63;69.89;100897.00;339781;29;1911;-77
2022/10/28 00:27:09;;;;;;;407.27;301.43;;;;;;;13.63;69.93;100903.13;339430;29;1273;-77
2022/10/28 00:27:19;;;;;;;409.07;306.27;;;;;;;13.65;69.84;100900.44;339618;29;906;-77
2022/10/28 00:27:30;;;;;;;409.35;308.13;;;;;;;13.64;69.75;100894.31;340372;29;933;-77
2022/10/28 00:27:42;;;;;;;408.20;303.52;;;;;;;13.65;69.66;100896.03;338024;29;1298;-77
2022/10/28 00:27:53;;;;;;;410.65;303.15;;;;;;;13.67;69.46;100897.75;336819;29;1111;-77
2022/10/28 00:28:03;;;;;;;411.23;301.45;;;;;;;13.65;69.64;100898.69;328379;29;987;-77
2022/10/28 00:28:14;;;;;;;412.10;299.30;;;;;;;13.61;69.70;100899.69;330590;29;1717;-77
2022/10/28 00:28:24;;;;;;;411.17;299.67;;;;;;;13.60;69.51;100897.97;335683;29;1957;-77
2022/10/28 00:28:36;;;;;;;411.43;301.27;;;;;;;13.59;69.59;100896.25;339534;29;926;-77
2022/10/28 00:28:54;;;;;;;408.55;299.45;;;;;;;13.59;69.77;100896.25;336076;29;2084;-77
2022/10/28 00:29:09;;;;;;;408.90;303.60;;;;;;;13.59;69.56;100896.25;334386;29;875;-77
2022/10/28 00:29:19;;;;;;;409.05;305.02;;;;;;;13.57;69.45;100895.44;333104;29;1148;-77
2022/10/28 00:29:31;;;;;;;407.08;299.23;;;;;;;13.55;69.38;100893.75;333606;29;1289;-77
2022/10/28 00:29:41;;;;;;;406.58;296.15;;;;;;;13.55;69.48;100892.00;336086;29;1579;-77
2022/10/28 00:29:51;;;;;;;407.58;294.50;;;;;;;13.53;69.34;100891.19;334352;29;1377;-77
2022/10/28 00:30:02;;;;;;;410.60;304.73;;;;;;;13.52;69.37;100886.81;334878;29;1695;-77
2022/10/28 00:30:12;;;;;;;413.38;310.63;;;;;;;13.52;69.59;100899.97;331553;29;1769;-77
2022/10/28 00:30:23;;;;;;;411.93;307.73;;;;;;;13.51;69.46;100893.00;328067;30;1230;-77
2022/10/28 00:30:33;;;;;;;411.15;304.13;;;;;;;13.50;69.50;100896.53;325768;30;956;-77
2022/10/28 00:30:44;;;;;;;410.77;302.00;;;;;;;13.50;69.30;100893.03;322363;30;2578;-77
2022/10/28 00:30:54;;;;;;;410.53;305.33;;;;;;;13.49;69.20;100889.56;321931;30;3017;-77
2022/10/28 00:31:05;;;;;;;409.25;303.23;;;;;;;13.49;69.12;100894.81;323352;30;1358;-77
2022/10/28 00:31:17;;;;;;;410.60;306.92;;;;;;;13.51;69.23;100897.41;320958;30;2862;-77
2022/10/28 00:31:28;;;;;;;407.85;301.85;;;;;;;13.50;69.19;100891.28;321646;30;1851;-77
2022/10/28 00:31:39;;;;;;;405.35;295.85;;;;;;;13.51;68.76;100893.00;325414;30;1394;-77
2022/10/28 00:31:51;;;;;;;405.27;300.17;;;;;;;13.49;68.85;100894.81;323253;30;1233;-77
2022/10/28 00:32:01;;;;;;;408.83;299.27;;;;;;;13.45;69.09;100890.56;321248;30;1691;-77
2022/10/28 00:32:12;;;;;;;411.48;297.08;;;;;;;13.43;69.05;100889.75;317216;30;2427;-77
2022/10/28 00:32:22;;;;;;;410.83;292.10;;;;;;;13.43;68.96;100887.13;316306;31;1314;-77
2022/10/28 00:32:32;;;;;;;409.48;294.38;;;;;;;13.43;68.82;100889.75;313373;31;2795;-77
2022/10/28 00:32:43;;;;;;;409.87;299.43;;;;;;;13.43;69.18;100888.91;315536;30;3242;-77
2022/10/28 00:32:53;;;;;;;411.53;306.83;;;;;;;13.43;68.85;100892.38;315593;31;3309;-77
2022/10/28 00:33:04;;;;;;;412.73;306.27;;;;;;;13.43;68.91;100895.00;312988;31;1285;-77
2022/10/28 00:33:14;;;;;;;412.60;302.73;;;;;;;13.42;69.04;100895.94;313304;31;3543;-77
2022/10/28 00:33:24;;;;;;;412.65;299.77;;;;;;;13.42;68.81;100897.72;312536;31;3525;-77
2022/10/28 00:33:35;;;;;;;409.97;297.00;;;;;;;13.41;68.73;100891.59;310825;31;1004;-76
2022/10/28 00:33:45;;;;;;;410.05;293.02;;;;;;;13.43;68.73;100892.38;309452;31;2938;-77
2022/10/28 00:33:57;;;;;;;411.10;299.63;;;;;;;13.43;68.82;100889.75;311266;31;5590;-77
2022/10/28 00:34:13;;;;;;;416.40;308.70;;;;;;;13.44;68.76;100896.72;308502;31;1269;-77
2022/10/28 00:34:23;;;;;;;415.13;311.98;;;;;;;13.45;68.59;100895.81;306480;31;3358;-77
2022/10/28 00:34:33;;;;;;;412.80;308.70;;;;;;;13.44;68.75;100891.47;308463;32;1620;-77
2022/10/28 00:34:44;;;;;;;410.92;304.83;;;;;;;13.43;68.66;100889.75;306327;32;3710;-77
2022/10/28 00:34:54;;;;;;;410.67;305.00;;;;;;;13.42;68.57;100893.31;304685;32;4674;-77
2022/10/28 00:35:05;;;;;;;411.63;303.30;;;;;;;13.43;68.39;100884.50;302162;32;1237;-77
2022/10/28 00:35:16;;;;;;;411.63;298.38;;;;;;;13.45;68.52;100892.34;299700;32;4869;-77
2022/10/28 00:35:26;;;;;;;409.75;299.08;;;;;;;13.45;68.14;100895.81;298369;32;4509;-77
2022/10/28 00:35:36;;;;;;;409.60;301.80;;;;;;;13.45;68.14;100890.56;300167;32;983;-77
2022/10/28 00:35:47;;;;;;;409.58;306.98;;;;;;;13.44;68.15;100894.09;301280;32;4990;-76
2022/10/28 00:36:09;;;;;;;409.40;305.13;;;;;;;13.44;68.10;100898.50;301929;32;3596;-77
2022/10/28 00:36:27;;;;;;;408.65;304.08;;;;;;;13.42;68.05;100888.06;300103;32;1470;-77
2022/10/28 00:36:39;;;;;;;412.42;304.55;;;;;;;13.40;67.98;100895.13;299183;33;1453;-77
2022/10/28 00:36:50;;;;;;;411.17;297.73;;;;;;;13.40;67.91;100900.41;297992;32;1303;-77
2022/10/28 00:37:00;;;;;;;411.05;298.88;;;;;;;13.39;68.15;100890.78;292386;33;5343;-77
2022/10/28 00:37:11;;;;;;;408.20;297.13;;;;;;;13.40;67.87;100896.91;289830;33;6660;-77
2022/10/28 00:37:21;;;;;;;411.10;298.23;;;;;;;13.40;67.77;100894.28;292140;33;1550;-77
2022/10/28 00:37:31;;;;;;;411.10;297.30;;;;;;;13.41;67.94;100896.84;292505;33;7209;-77
2022/10/28 00:37:42;;;;;;;410.37;295.50;;;;;;;13.40;67.88;100892.50;293239;33;6205;-77
2022/10/28 00:37:52;;;;;;;410.20;299.50;;;;;;;13.41;67.67;100894.22;293142;33;849;-76
2022/10/28 00:38:03;;;;;;;412.47;303.37;;;;;;;13.40;67.67;100895.13;291192;33;6711;-77
2022/10/28 00:38:13;;;;;;;412.15;303.38;;;;;;;13.39;67.77;100895.19;288971;34;5455;-77
2022/10/28 00:38:23;;;;;;;411.10;303.27;;;;;;;13.38;67.77;100902.22;286984;34;4894;-77
2022/10/28 00:38:34;;;;;;;410.67;299.85;;;;;;;13.39;68.00;100898.69;286464;34;1383;-77
2022/10/28 00:38:46;;;;;;;411.40;303.77;;;;;;;13.40;67.96;100894.28;281800;34;6238;-77
2022/10/28 00:38:56;;;;;;;413.70;304.13;;;;;;;13.39;68.00;100898.69;278771;34;7058;-77
2022/10/28 00:39:13;;;;;;;413.98;308.40;;;;;;;13.36;67.64;100896.13;280098;35;851;-77
2022/10/28 00:41:28;;;;;;;400.84;286.34;;;;;;;13.43;67.64;100896.81;2500988;27;20475;-76
2022/10/28 00:41:41;;;;;;;417.17;338.77;;;;;;;13.43;67.50;100895.00;350283;28;1296;-76
2022/10/28 00:41:54;;;;;;;417.33;346.45;;;;;;;13.42;67.51;100892.47;348573;28;1300;-75
2022/10/28 00:42:06;;;;;;;416.73;337.73;;;;;;;13.39;67.44;100890.78;347548;28;1387;-76
2022/10/28 00:42:19;;;;;;;416.77;333.25;;;;;;;13.37;67.32;100897.00;347560;28;1314;-77
2022/10/28 00:42:29;;;;;;;417.15;325.38;;;;;;;13.33;67.33;100896.25;347505;28;1242;-76
2022/10/28 00:42:40;;;;;;;416.17;322.50;;;;;;;13.32;67.75;100899.78;346261;28;1301;-76
2022/10/28 00:42:50;;;;;;;417.30;325.83;;;;;;;13.31;67.60;100901.53;347208;28;1487;-76
2022/10/28 00:43:01;;;;;;;415.35;322.27;;;;;;;13.33;67.61;100896.25;346720;28;3637;-76
2022/10/28 00:43:11;;;;;;;415.00;316.63;;;;;;;13.32;67.67;100892.75;347340;28;1399;-76
2022/10/28 00:43:44;;;;;;;412.87;304.83;;;;;;;13.36;67.69;100893.50;348482;28;1976;-76
2022/10/28 00:43:56;;;;;;;398.42;249.45;;;;;;;13.35;67.38;100898.81;348980;28;1346;-76
2022/10/28 00:44:44;;;;;;;402.30;257.75;;;;;;;13.31;67.71;100893.66;346313;28;877;-76
2022/10/28 00:45:02;;;;;;;392.75;237.80;;;;;;;13.33;67.71;100898.88;346952;28;1897;-76
2022/10/28 00:45:13;;;;;;;395.67;233.93;;;;;;;13.35;67.58;100894.41;345694;28;1718;-75
2022/10/28 00:45:23;;;;;;;395.60;236.50;;;;;;;13.35;67.59;100891.78;347318;28;1063;-75
2022/10/28 00:45:33;;;;;;;399.10;243.93;;;;;;;13.34;67.93;100890.06;344873;28;931;-75
2022/10/28 00:45:44;;;;;;;401.00;244.93;;;;;;;13.34;67.55;100890.06;344858;28;1283;-75
2022/10/28 00:45:55;;;;;;;405.87;245.70;;;;;;;13.30;67.77;100894.56;343578;28;1202;-76
2022/10/28 00:46:11;;;;;;;402.75;240.48;;;;;;;13.32;67.75;100897.16;342898;28;880;-75
2022/10/28 00:46:33;;;;;;;399.10;243.93;;;;;;;13.33;67.65;100896.25;345607;28;846;-75
2022/10/28 00:46:45;;;;;;;401.02;245.77;;;;;;;13.33;67.68;100893.59;347635;28;1480;-75
2022/10/28 00:46:55;;;;;;;404.15;249.07;;;;;;;13.33;67.61;100896.25;345033;28;1812;-76
2022/10/28 00:47:09;;;;;;;404.15;245.48;;;;;;;13.32;67.53;100897.16;345437;28;1744;-76
2022/10/28 00:47:42;;;;;;;401.25;239.02;;;;;;;13.32;67.42;100892.75;346803;28;1085;-76
2022/10/28 00:47:57;;;;;;;396.10;237.82;;;;;;;13.31;67.64;100900.69;346719;28;1157;-76
2022/10/28 00:48:07;;;;;;;395.78;243.22;;;;;;;13.31;67.34;100893.66;346153;28;1320;-76
2022/10/28 00:48:17;;;;;;;397.37;241.00;;;;;;;13.31;67.55;100896.28;342171;28;900;-76
2022/10/28 00:48:28;;;;;;;398.67;239.53;;;;;;;13.29;67.34;100892.84;343603;28;1011;-76
2022/10/28 00:48:40;;;;;;;400.15;237.40;;;;;;;13.29;67.61;100889.34;345112;28;1512;-76
2022/10/28 00:49:03;;;;;;;401.05;241.38;;;;;;;13.31;67.27;100896.28;345499;28;1290;-76
2022/10/28 00:49:18;;;;;;;397.92;244.75;;;;;;;13.30;67.23;100898.97;339493;29;1292;-75
2022/10/28 00:49:31;;;;;;;399.45;244.45;;;;;;;13.27;67.46;100894.66;337013;29;918;-75
2022/10/28 00:49:41;;;;;;;399.63;241.63;;;;;;;13.29;67.22;100897.25;334375;29;1387;-75
2022/10/28 00:49:53;;;;;;;400.57;245.53;;;;;;;13.27;67.82;100893.81;335017;29;1331;-76
2022/10/28 00:50:29;;;;;;;399.30;246.75;;;;;;;13.29;67.45;100894.63;336643;29;1641;-76
2022/10/28 00:50:43;;;;;;;398.15;243.50;;;;;;;13.26;67.43;100892.94;338145;29;1422;-76
2022/10/28 00:50:54;;;;;;;397.00;243.85;;;;;;;13.27;67.55;100901.69;336769;29;1396;-76
2022/10/28 00:51:04;;;;;;;397.23;246.37;;;;;;;13.26;67.34;100892.06;336293;29;953;-76
2022/10/28 00:51:14;;;;;;;396.08;240.30;;;;;;;13.24;67.25;100894.75;333098;29;1018;-76
2022/10/28 00:51:25;;;;;;;397.07;243.17;;;;;;;13.25;67.25;100895.63;335162;29;1417;-76
2022/10/28 00:51:35;;;;;;;399.90;244.90;;;;;;;13.25;67.36;100892.97;333996;29;1799;-76
2022/10/28 00:51:47;;;;;;;400.43;247.77;;;;;;;13.24;67.29;100894.75;332884;29;1952;-76
2022/10/28 00:52:03;;;;;;;403.10;253.40;;;;;;;13.26;67.35;100894.72;333144;29;1283;-76
2022/10/28 00:52:19;;;;;;;401.30;256.58;;;;;;;13.25;67.07;100892.97;332396;29;4980;-75
2022/10/28 00:52:29;;;;;;;402.55;251.65;;;;;;;13.25;67.12;100895.63;333246;29;832;-76
2022/10/28 00:52:39;;;;;;;400.40;245.60;;;;;;;13.27;67.23;100896.44;329016;30;1699;-76
2022/10/28 00:52:53;;;;;;;397.38;243.75;;;;;;;13.26;67.12;100894.72;325954;30;5373;-76
2022/10/28 00:53:24;;;;;;;393.23;239.57;;;;;;;13.26;67.28;100895.56;330391;29;1400;-76
2022/10/28 00:53:34;;;;;;;399.55;240.75;;;;;;;13.26;67.40;100897.34;327177;29;1918;-76
2022/10/28 00:53:44;;;;;;;397.83;238.18;;;;;;;13.25;67.07;100896.47;325754;30;1089;-76
2022/10/28 00:53:55;;;;;;;400.93;235.87;;;;;;;13.26;67.24;100897.34;327885;30;2179;-76
2022/10/28 00:54:05;;;;;;;398.20;234.68;;;;;;;13.25;67.18;100892.97;320405;30;2340;-76
2022/10/28 00:54:16;;;;;;;397.37;237.10;;;;;;;13.25;67.12;100890.34;317199;30;2580;-76
2022/10/28 00:54:26;;;;;;;394.40;238.13;;;;;;;13.25;66.94;100893.84;318612;31;1397;-76
2022/10/28 00:54:36;;;;;;;397.27;242.63;;;;;;;13.25;67.22;100895.63;321020;30;2608;-76
2022/10/28 00:54:47;;;;;;;401.00;242.30;;;;;;;13.24;67.11;100893.88;318890;30;1908;-76
2022/10/28 00:54:58;;;;;;;401.02;240.90;;;;;;;13.20;67.16;100894.91;319717;30;1241;-76
2022/10/28 00:55:09;;;;;;;401.38;238.25;;;;;;;13.20;67.34;100897.53;322724;30;1530;-76
2022/10/28 00:55:19;;;;;;;403.63;238.95;;;;;;;13.21;66.99;100893.97;322850;30;1951;-76
2022/10/28 00:55:29;;;;;;;405.90;241.83;;;;;;;13.22;67.11;100900.97;319100;30;1840;-76
2022/10/28 00:55:40;;;;;;;405.38;240.40;;;;;;;13.21;67.32;100897.47;315883;30;2633;-76
2022/10/28 00:55:50;;;;;;;401.40;241.77;;;;;;;13.21;67.39;100893.97;315679;31;2932;-75
2022/10/28 00:56:01;;;;;;;400.05;243.00;;;;;;;13.22;67.01;100900.97;315481;31;2885;-76
2022/10/28 00:56:11;;;;;;;398.77;244.33;;;;;;;13.23;67.17;100902.69;314152;31;871;-76
2022/10/28 00:56:25;;;;;;;398.00;241.67;;;;;;;13.23;67.06;100893.03;317302;30;3104;-76
2022/10/28 00:56:37;;;;;;;399.92;243.27;;;;;;;13.21;67.25;100892.22;318857;30;3259;-76
2022/10/28 00:56:50;;;;;;;401.48;248.32;;;;;;;13.21;67.23;100899.25;313152;31;3341;-76
2022/10/28 00:57:01;;;;;;;401.13;247.07;;;;;;;13.22;66.96;100900.97;310556;31;2466;-76
2022/10/28 00:57:16;;;;;;;397.95;243.80;;;;;;;13.20;67.16;100901.00;315687;31;1068;-76
2022/10/28 00:57:29;;;;;;;395.33;240.40;;;;;;;13.22;67.14;100893.06;315183;31;1349;-76
2022/10/28 00:57:40;;;;;;;398.60;242.60;;;;;;;13.21;66.89;100899.25;313631;31;2907;-76
2022/10/28 00:57:50;;;;;;;400.50;245.80;;;;;;;13.19;67.06;100895.81;312265;31;3676;-76
2022/10/28 00:58:01;;;;;;;400.43;243.67;;;;;;;13.18;67.36;100899.34;309762;31;4300;-76
2022/10/28 00:58:11;;;;;;;394.92;239.52;;;;;;;13.19;67.01;100896.66;308551;32;1329;-76